TimeEDT,TemperatureF,Dew PointF,Humidity,Sea Level PressureIn,VisibilityMPH,Wind Direction,Wind SpeedMPH,Gust SpeedMPH,PrecipitationIn,Events,Conditions,WindDirDegrees,DateUTC
12:53 AM,37.9,32.0,79,30.06,10.0,NW,5.8,-,N/A,,Clear,320,2011-10-28 04:53:00
1:53 AM,37.0,30.0,76,30.09,10.0,NW,3.5,-,N/A,,Clear,310,2011-10-28 05:53:00
2:53 AM,37.0,30.0,76,30.11,10.0,NNW,5.8,-,N/A,,Clear,330,2011-10-28 06:53:00
3:53 AM,37.0,30.0,76,30.13,10.0,NNW,4.6,-,N/A,,Clear,330,2011-10-28 07:53:00
4:53 AM,36.0,28.9,76,30.15,10.0,NNW,6.9,-,N/A,,Clear,330,2011-10-28 08:53:00
5:53 AM,36.0,28.9,76,30.16,10.0,Calm,Calm,-,N/A,,Clear,0,2011-10-28 09:53:00
6:53 AM,36.0,28.9,76,30.19,10.0,WNW,5.8,-,N/A,,Clear,300,2011-10-28 10:53:00
7:53 AM,35.1,28.9,78,30.20,10.0,Calm,Calm,-,N/A,,Clear,0,2011-10-28 11:53:00
8:53 AM,39.9,30.0,68,30.23,10.0,Calm,Calm,-,N/A,,Clear,0,2011-10-28 12:53:00
9:53 AM,41.0,30.0,65,30.24,10.0,NNE,3.5,-,N/A,,Clear,30,2011-10-28 13:53:00
10:53 AM,43.0,30.0,60,30.25,10.0,North,3.5,-,N/A,,Clear,360,2011-10-28 14:53:00
11:53 AM,46.0,28.9,51,30.25,10.0,NNE,3.5,-,N/A,,Clear,30,2011-10-28 15:53:00
1:53 PM,48.0,28.0,46,30.22,10.0,Calm,Calm,-,N/A,,Clear,0,2011-10-28 17:53:00
2:53 PM,46.9,28.0,48,30.20,10.0,NNE,5.8,-,N/A,,Clear,20,2011-10-28 18:53:00
3:53 PM,46.9,28.0,48,30.20,10.0,NE,4.6,-,N/A,,Clear,50,2011-10-28 19:53:00
4:53 PM,46.9,28.0,48,30.22,10.0,Calm,Calm,-,N/A,,Clear,0,2011-10-28 20:53:00
5:53 PM,46.9,27.0,46,30.21,10.0,Calm,Calm,-,N/A,,Scattered Clouds,0,2011-10-28 21:53:00
6:53 PM,45.0,34.0,65,30.22,10.0,Calm,Calm,-,N/A,,Overcast,0,2011-10-28 22:53:00
7:53 PM,44.1,36.0,73,30.23,10.0,Calm,Calm,-,N/A,,Overcast,0,2011-10-28 23:53:00
9:53 PM,44.1,35.1,71,30.23,10.0,Calm,Calm,-,N/A,,Overcast,0,2011-10-29 01:53:00
10:53 PM,43.0,37.0,80,30.23,10.0,SE,4.6,-,N/A,,Overcast,140,2011-10-29 02:53:00
11:53 PM,44.1,28.9,55,30.22,10.0,South,4.6,-,0.00,Rain,Light Rain,180,2011-10-29 03:53:00